Time;durP1;ratioP1;P1;durP2;ratioP2;P2;SDS_P1;SDS_P2;PMS_P1;PMS_P2;Temp;Humidity;BMP_temperature;BMP_pressure;BME280_temperature;BME280_humidity;BME280_pressure;Samples;Min_cycle;Max_cycle;Signal;HPM_P1;HPM_P2
2022/06/20 19:44:38;;;;;;;0.10;0.10;;;;;;;;;;5090822;27;20392;-85
2022/06/20 19:47:26;;;;;;;0.10;0.10;;;;;;;;;;5098395;28;20069;-86
2022/06/20 19:50:15;;;;;;;0.10;0.10;;;;;;;;;;5093065;28;20086;-88
2022/06/20 19:52:41;;;;;;;0.10;0.10;;;;;;;;;;5093291;28;20030;-88
2022/06/20 19:55:17;;;;;;;0.10;0.10;;;;;;;;;;5091958;28;20391;-89
2022/06/20 19:58:01;;;;;;;0.10;0.10;;;;;;;;;;5095547;28;20024;-90
2022/06/20 20:00:28;;;;;;;0.13;0.13;;;;;;;;;;5090502;28;20411;-84
2022/06/20 20:03:10;;;;;;;0.10;0.10;;;;;;;;;;5091831;28;20067;-83
2022/06/20 20:05:50;;;;;;;0.10;0.10;;;;;;;;;;5093883;28;20039;-88
2022/06/20 20:08:21;;;;;;;0.10;0.10;;;;;;;;;;5093805;28;20020;-83
2022/06/20 20:10:49;;;;;;;0.10;0.10;;;;;;;;;;5091181;28;20115;-88
2022/06/20 20:13:19;;;;;;;0.10;0.10;;;;;;;;;;5090472;28;20024;-84
2022/06/20 20:15:54;;;;;;;0.10;0.10;;;;;;;;;;5101654;28;20035;-82
2022/06/20 20:18:27;;;;;;;0.10;0.10;;;;;;;;;;5091830;28;20568;-88
2022/06/20 20:21:12;;;;;;;0.10;0.10;;;;;;;;;;5094963;28;21585;-85
2022/06/20 20:23:57;;;;;;;0.10;0.10;;;;;;;;;;5093310;28;20039;-87
2022/06/20 20:26:23;;;;;;;0.10;0.10;;;;;;;;;;5098059;28;20032;-85
2022/06/20 20:28:58;;;;;;;0.10;0.10;;;;;;;;;;5093079;28;20350;-84
2022/06/20 20:31:29;;;;;;;0.10;0.10;;;;;;;;;;5095142;28;20032;-84
2022/06/20 20:33:57;;;;;;;0.10;0.10;;;;;;;;;;5088646;28;20029;-83
2022/06/20 20:36:33;;;;;;;0.10;0.10;;;;;;;;;;5088395;28;20027;-83
2022/06/20 20:39:21;;;;;;;0.10;0.10;;;;;;;;;;5089099;28;20028;-84
2022/06/20 20:41:50;;;;;;;0.17;0.17;;;;;;;;;;5086810;28;20519;-85
2022/06/20 20:44:17;;;;;;;0.10;0.10;;;;;;;;;;5095493;28;20060;-83
2022/06/20 20:46:55;;;;;;;0.10;0.10;;;;;;;;;;5087205;28;20031;-85
2022/06/20 20:49:25;;;;;;;0.10;0.10;;;;;;;;;;5089216;28;20028;-85
2022/06/20 20:51:55;;;;;;;0.10;0.10;;;;;;;;;;5089053;28;20453;-84
2022/06/20 20:54:23;;;;;;;0.00;0.00;;;;;;;;;;5083724;28;20086;-84
2022/06/20 20:56:50;;;;;;;0.10;0.10;;;;;;;;;;5086198;28;20431;-86
2022/06/20 20:59:19;;;;;;;0.10;0.10;;;;;;;;;;5095448;28;20099;-83
2022/06/20 21:01:47;;;;;;;0.10;0.10;;;;;;;;;;5084595;28;20040;-84
2022/06/20 21:04:22;;;;;;;0.10;0.10;;;;;;;;;;5073213;28;20041;-85
2022/06/20 21:06:54;;;;;;;0.10;0.10;;;;;;;;;;5075402;28;20025;-84
2022/06/20 21:09:20;;;;;;;0.10;0.10;;;;;;;;;;5076608;28;20040;-86
2022/06/20 21:11:47;;;;;;;0.10;0.10;;;;;;;;;;5076805;28;20020;-86
2022/06/20 21:14:24;;;;;;;0.10;0.10;;;;;;;;;;5074607;28;20031;-83
2022/06/20 21:17:00;;;;;;;0.10;0.10;;;;;;;;;;5074315;28;20518;-83
2022/06/20 21:19:27;;;;;;;0.10;0.10;;;;;;;;;;5074366;28;20071;-85
2022/06/20 21:21:54;;;;;;;0.10;0.10;;;;;;;;;;5073819;28;20020;-83
2022/06/20 21:24:22;;;;;;;0.10;0.10;;;;;;;;;;5072842;28;20070;-82
2022/06/20 21:26:49;;;;;;;0.10;0.10;;;;;;;;;;5081521;28;20496;-84
2022/06/20 21:29:16;;;;;;;0.10;0.10;;;;;;;;;;5072850;28;20456;-83
2022/06/20 21:31:44;;;;;;;0.10;0.10;;;;;;;;;;5083539;28;20111;-86
2022/06/20 21:34:11;;;;;;;0.10;0.10;;;;;;;;;;5072542;28;20105;-84
2022/06/20 21:36:44;;;;;;;0.10;0.10;;;;;;;;;;5072987;28;20025;-84
2022/06/20 21:39:12;;;;;;;0.10;0.10;;;;;;;;;;5072136;28;20021;-84
2022/06/20 21:41:42;;;;;;;0.10;0.10;;;;;;;;;;5071043;28;20085;-83
2022/06/20 21:44:13;;;;;;;0.10;0.10;;;;;;;;;;5067005;28;20047;-83
2022/06/20 21:46:39;;;;;;;0.10;0.10;;;;;;;;;;5068817;28;20051;-84
2022/06/20 21:49:05;;;;;;;0.10;0.10;;;;;;;;;;5070826;28;20565;-85
2022/06/20 21:51:32;;;;;;;0.10;0.10;;;;;;;;;;5071873;28;20495;-89
2022/06/20 21:54:04;;;;;;;0.10;0.10;;;;;;;;;;5070196;28;20075;-90
2022/06/20 21:56:39;;;;;;;0.10;0.10;;;;;;;;;;5076488;28;20046;-88
2022/06/20 21:59:16;;;;;;;0.10;0.10;;;;;;;;;;5078253;28;20374;-90
2022/06/20 22:04:29;;;;;;;0.10;0.10;;;;;;;;;;5080103;28;20483;-89
2022/06/20 22:07:00;;;;;;;0.00;0.00;;;;;;;;;;5079437;28;20025;-89
2022/06/20 22:09:29;;;;;;;0.10;0.10;;;;;;;;;;5079688;28;20036;-89
2022/06/20 22:11:55;;;;;;;0.10;0.10;;;;;;;;;;5087552;28;20052;-90
2022/06/20 22:14:21;;;;;;;0.10;0.10;;;;;;;;;;5093660;28;20066;-90
2022/06/20 22:16:49;;;;;;;0.10;0.10;;;;;;;;;;5088284;28;20028;-88
2022/06/20 22:19:15;;;;;;;0.10;0.10;;;;;;;;;;5077720;28;20028;-89
2022/06/20 22:21:59;;;;;;;0.10;0.10;;;;;;;;;;5080104;28;20036;-88
2022/06/20 22:24:26;;;;;;;0.10;0.10;;;;;;;;;;5077656;28;20075;-86
2022/06/20 22:27:07;;;;;;;0.10;0.10;;;;;;;;;;5080795;28;20025;-88
2022/06/20 22:29:40;;;;;;;0.10;0.10;;;;;;;;;;5081023;28;20087;-88
2022/06/20 22:32:07;;;;;;;0.10;0.10;;;;;;;;;;5080998;28;20051;-88
2022/06/20 22:34:36;;;;;;;0.10;0.10;;;;;;;;;;5076185;28;20028;-89
2022/06/20 22:37:02;;;;;;;0.10;0.10;;;;;;;;;;5074148;28;20054;-89
2022/06/20 22:39:32;;;;;;;0.10;0.10;;;;;;;;;;5077994;28;20028;-87
2022/06/20 22:41:58;;;;;;;0.10;0.10;;;;;;;;;;5082777;28;20162;-88
2022/06/20 22:44:24;;;;;;;0.00;0.00;;;;;;;;;;5077828;28;20043;-88
2022/06/20 22:46:58;;;;;;;0.10;0.10;;;;;;;;;;5078936;28;20049;-88
2022/06/20 22:49:23;;;;;;;0.10;0.10;;;;;;;;;;5075812;28;20664;-88
2022/06/20 22:51:52;;;;;;;0.10;0.10;;;;;;;;;;5076522;28;20020;-87
2022/06/20 22:54:20;;;;;;;0.10;0.10;;;;;;;;;;5079975;28;20036;-89
2022/06/20 22:57:03;;;;;;;0.10;0.10;;;;;;;;;;5076583;28;20024;-88
2022/06/20 22:59:51;;;;;;;0.10;0.10;;;;;;;;;;5079699;28;20110;-88
2022/06/20 23:02:17;;;;;;;0.10;0.10;;;;;;;;;;5078972;28;20046;-88
2022/06/20 23:04:46;;;;;;;0.10;0.10;;;;;;;;;;5079098;28;20024;-88
2022/06/20 23:07:13;;;;;;;0.15;0.15;;;;;;;;;;5076942;28;20031;-87
2022/06/20 23:09:39;;;;;;;0.10;0.10;;;;;;;;;;5079048;28;20028;-88
2022/06/20 23:12:05;;;;;;;0.10;0.10;;;;;;;;;;5079131;28;20077;-87
2022/06/20 23:14:31;;;;;;;0.10;0.10;;;;;;;;;;5076773;28;20043;-89
2022/06/20 23:19:47;;;;;;;0.10;0.10;;;;;;;;;;5078371;28;20070;-87
2022/06/20 23:22:29;;;;;;;0.10;0.10;;;;;;;;;;5080749;28;20028;-90
2022/06/20 23:24:57;;;;;;;0.10;0.10;;;;;;;;;;5078753;28;20032;-86
2022/06/20 23:27:23;;;;;;;0.10;0.10;;;;;;;;;;5079750;28;20065;-89
2022/06/20 23:29:50;;;;;;;0.10;0.10;;;;;;;;;;5082035;28;20099;-89
2022/06/20 23:32:18;;;;;;;0.10;0.10;;;;;;;;;;5081961;28;20024;-88
2022/06/20 23:34:45;;;;;;;0.10;0.10;;;;;;;;;;5074548;28;21330;-90
2022/06/20 23:37:12;;;;;;;0.10;0.10;;;;;;;;;;5076678;28;20028;-87
2022/06/20 23:39:39;;;;;;;0.10;0.10;;;;;;;;;;5078102;28;20020;-86
2022/06/20 23:42:05;;;;;;;0.10;0.10;;;;;;;;;;5075383;28;20035;-87
2022/06/20 23:44:34;;;;;;;0.10;0.10;;;;;;;;;;5081296;28;20495;-87
2022/06/20 23:47:00;;;;;;;0.10;0.10;;;;;;;;;;5077759;28;20741;-86
2022/06/20 23:49:26;;;;;;;0.10;0.10;;;;;;;;;;5078134;28;20024;-88
2022/06/20 23:51:52;;;;;;;0.20;0.20;;;;;;;;;;5077063;28;20396;-86
2022/06/20 23:54:18;;;;;;;0.17;0.17;;;;;;;;;;5079517;28;20430;-88
2022/06/20 23:56:44;;;;;;;0.10;0.10;;;;;;;;;;5076407;28;20037;-88
2022/06/20 23:59:33;;;;;;;0.10;0.10;;;;;;;;;;5078009;28;20016;-88
